sensor_id;sensor_type;location;lat;lon;timestamp;temperature;humidity
13229;DHT22;6680;53.220;10.402;2024-02-28T00:01:03;4.90;99.90
13229;DHT22;6680;53.220;10.402;2024-02-28T00:03:30;4.00;99.90
13229;DHT22;6680;53.220;10.402;2024-02-28T00:05:59;4.00;99.90
13229;DHT22;6680;53.220;10.402;2024-02-28T00:08:25;3.70;99.90
13229;DHT22;6680;53.220;10.402;2024-02-28T00:10:52;3.80;99.90
13229;DHT22;6680;53.220;10.402;2024-02-28T00:13:19;3.80;99.90
13229;DHT22;6680;53.220;10.402;2024-02-28T00:15:48;4.10;99.90
13229;DHT22;6680;53.220;10.402;2024-02-28T00:18:15;3.90;99.90
13229;DHT22;6680;53.220;10.402;2024-02-28T00:20:43;3.90;99.90
13229;DHT22;6680;53.220;10.402;2024-02-28T00:23:11;3.90;99.90
13229;DHT22;6680;53.220;10.402;2024-02-28T00:25:38;4.10;99.90
13229;DHT22;6680;53.220;10.402;2024-02-28T00:28:05;4.10;99.90
13229;DHT22;6680;53.220;10.402;2024-02-28T00:30:33;4.10;99.90
13229;DHT22;6680;53.220;10.402;2024-02-28T00:33:00;4.10;99.90
13229;DHT22;6680;53.220;10.402;2024-02-28T00:35:30;4.10;99.90
13229;DHT22;6680;53.220;10.402;2024-02-28T00:37:58;4.00;99.90
13229;DHT22;6680;53.220;10.402;2024-02-28T00:40:26;4.00;99.90
13229;DHT22;6680;53.220;10.402;2024-02-28T00:42:53;3.90;99.90
13229;DHT22;6680;53.220;10.402;2024-02-28T00:45:20;4.00;99.90
13229;DHT22;6680;53.220;10.402;2024-02-28T00:47:48;4.00;99.90
13229;DHT22;6680;53.220;10.402;2024-02-28T00:50:14;4.00;99.90
13229;DHT22;6680;53.220;10.402;2024-02-28T00:52:41;4.00;99.90
13229;DHT22;6680;53.220;10.402;2024-02-28T00:55:08;4.00;99.90
13229;DHT22;6680;53.220;10.402;2024-02-28T00:57:36;3.90;99.90
13229;DHT22;6680;53.220;10.402;2024-02-28T01:00:04;3.90;99.90
13229;DHT22;6680;53.220;10.402;2024-02-28T01:02:32;3.90;99.90
13229;DHT22;6680;53.220;10.402;2024-02-28T01:04:58;3.90;99.90
13229;DHT22;6680;53.220;10.402;2024-02-28T01:07:25;3.70;99.90
13229;DHT22;6680;53.220;10.402;2024-02-28T01:09:52;3.60;99.90
13229;DHT22;6680;53.220;10.402;2024-02-28T01:12:19;3.60;99.90
13229;DHT22;6680;53.220;10.402;2024-02-28T01:14:47;3.60;99.90
13229;DHT22;6680;53.220;10.402;2024-02-28T01:17:14;3.60;99.90
13229;DHT22;6680;53.220;10.402;2024-02-28T01:19:41;3.60;99.90
13229;DHT22;6680;53.220;10.402;2024-02-28T01:22:07;3.60;99.90
13229;DHT22;6680;53.220;10.402;2024-02-28T01:24:35;3.50;99.90
13229;DHT22;6680;53.220;10.402;2024-02-28T01:27:02;3.50;99.90
13229;DHT22;6680;53.220;10.402;2024-02-28T01:29:29;3.60;99.90
13229;DHT22;6680;53.220;10.402;2024-02-28T01:31:57;3.40;99.90
13229;DHT22;6680;53.220;10.402;2024-02-28T01:34:24;3.50;99.90
13229;DHT22;6680;53.220;10.402;2024-02-28T01:36:51;3.50;99.90
13229;DHT22;6680;53.220;10.402;2024-02-28T01:39:18;3.50;99.90
13229;DHT22;6680;53.220;10.402;2024-02-28T01:41:51;3.40;99.90
13229;DHT22;6680;53.220;10.402;2024-02-28T01:44:18;3.50;99.90
13229;DHT22;6680;53.220;10.402;2024-02-28T01:46:46;3.60;99.90
13229;DHT22;6680;53.220;10.402;2024-02-28T01:49:15;3.60;99.90
13229;DHT22;6680;53.220;10.402;2024-02-28T01:51:42;3.60;99.90
13229;DHT22;6680;53.220;10.402;2024-02-28T01:56:38;3.60;99.90
13229;DHT22;6680;53.220;10.402;2024-02-28T01:59:06;3.60;99.90
13229;DHT22;6680;53.220;10.402;2024-02-28T02:01:33;3.60;99.90
13229;DHT22;6680;53.220;10.402;2024-02-28T02:04:00;3.70;99.90
13229;DHT22;6680;53.220;10.402;2024-02-28T02:06:28;3.80;99.90
13229;DHT22;6680;53.220;10.402;2024-02-28T02:11:24;3.60;99.90
13229;DHT22;6680;53.220;10.402;2024-02-28T02:13:53;3.60;99.90
13229;DHT22;6680;53.220;10.402;2024-02-28T02:16:20;3.50;99.90
13229;DHT22;6680;53.220;10.402;2024-02-28T02:18:48;3.50;99.90
13229;DHT22;6680;53.220;10.402;2024-02-28T02:21:18;3.40;99.90
13229;DHT22;6680;53.220;10.402;2024-02-28T02:23:47;3.30;99.90
13229;DHT22;6680;53.220;10.402;2024-02-28T02:26:13;3.30;99.90
13229;DHT22;6680;53.220;10.402;2024-02-28T02:28:40;3.30;99.90
13229;DHT22;6680;53.220;10.402;2024-02-28T02:31:07;3.30;99.90
13229;DHT22;6680;53.220;10.402;2024-02-28T02:33:34;3.30;99.90
13229;DHT22;6680;53.220;10.402;2024-02-28T02:36:01;3.30;99.90
13229;DHT22;6680;53.220;10.402;2024-02-28T02:38:28;3.30;99.90
13229;DHT22;6680;53.220;10.402;2024-02-28T02:40:56;3.30;99.90
13229;DHT22;6680;53.220;10.402;2024-02-28T02:43:23;3.20;99.90
13229;DHT22;6680;53.220;10.402;2024-02-28T02:45:50;3.30;99.90
13229;DHT22;6680;53.220;10.402;2024-02-28T02:48:17;3.30;99.90
13229;DHT22;6680;53.220;10.402;2024-02-28T02:50:43;3.00;99.90
13229;DHT22;6680;53.220;10.402;2024-02-28T02:53:10;3.30;99.90
13229;DHT22;6680;53.220;10.402;2024-02-28T02:55:37;3.30;99.90
13229;DHT22;6680;53.220;10.402;2024-02-28T02:58:05;3.40;99.90
13229;DHT22;6680;53.220;10.402;2024-02-28T03:00:32;3.30;99.90
13229;DHT22;6680;53.220;10.402;2024-02-28T03:02:59;3.40;99.90
13229;DHT22;6680;53.220;10.402;2024-02-28T03:07:53;3.30;99.90
13229;DHT22;6680;53.220;10.402;2024-02-28T03:10:20;3.20;99.90
13229;DHT22;6680;53.220;10.402;2024-02-28T03:12:47;3.10;99.90
13229;DHT22;6680;53.220;10.402;2024-02-28T03:15:15;3.10;99.90
13229;DHT22;6680;53.220;10.402;2024-02-28T03:20:10;3.10;99.90
13229;DHT22;6680;53.220;10.402;2024-02-28T03:22:38;3.10;99.90
13229;DHT22;6680;53.220;10.402;2024-02-28T03:25:06;3.00;99.90
13229;DHT22;6680;53.220;10.402;2024-02-28T03:27:34;3.20;99.90
13229;DHT22;6680;53.220;10.402;2024-02-28T03:30:01;3.20;99.90
13229;DHT22;6680;53.220;10.402;2024-02-28T03:32:30;3.10;99.90
13229;DHT22;6680;53.220;10.402;2024-02-28T03:34:57;3.10;99.90
13229;DHT22;6680;53.220;10.402;2024-02-28T03:37:24;3.00;99.90
13229;DHT22;6680;53.220;10.402;2024-02-28T03:39:51;3.00;99.90
13229;DHT22;6680;53.220;10.402;2024-02-28T03:42:18;2.90;99.90
13229;DHT22;6680;53.220;10.402;2024-02-28T03:44:45;2.80;99.90
13229;DHT22;6680;53.220;10.402;2024-02-28T03:47:13;2.90;99.90
13229;DHT22;6680;53.220;10.402;2024-02-28T03:49:41;2.90;99.90
13229;DHT22;6680;53.220;10.402;2024-02-28T03:52:08;2.80;99.90
13229;DHT22;6680;53.220;10.402;2024-02-28T03:54:35;2.80;99.90
13229;DHT22;6680;53.220;10.402;2024-02-28T03:57:02;3.00;99.90
13229;DHT22;6680;53.220;10.402;2024-02-28T03:59:29;3.00;99.90
13229;DHT22;6680;53.220;10.402;2024-02-28T04:01:55;3.00;99.90
13229;DHT22;6680;53.220;10.402;2024-02-28T04:04:22;2.90;99.90
13229;DHT22;6680;53.220;10.402;2024-02-28T04:06:51;2.90;99.90
13229;DHT22;6680;53.220;10.402;2024-02-28T04:09:18;2.60;99.90
13229;DHT22;6680;53.220;10.402;2024-02-28T04:11:46;3.10;99.90
13229;DHT22;6680;53.220;10.402;2024-02-28T04:14:12;3.00;99.90
13229;DHT22;6680;53.220;10.402;2024-02-28T04:16:41;2.90;99.90
13229;DHT22;6680;53.220;10.402;2024-02-28T04:19:09;3.00;99.90
13229;DHT22;6680;53.220;10.402;2024-02-28T04:21:36;3.00;99.90
13229;DHT22;6680;53.220;10.402;2024-02-28T04:24:05;3.00;99.90
13229;DHT22;6680;53.220;10.402;2024-02-28T04:26:32;3.00;99.90
13229;DHT22;6680;53.220;10.402;2024-02-28T04:28:59;3.00;99.90
13229;DHT22;6680;53.220;10.402;2024-02-28T04:31:28;3.00;99.90
13229;DHT22;6680;53.220;10.402;2024-02-28T04:33:55;3.00;99.90
13229;DHT22;6680;53.220;10.402;2024-02-28T04:36:22;3.00;99.90
13229;DHT22;6680;53.220;10.402;2024-02-28T04:41:17;3.00;99.90
13229;DHT22;6680;53.220;10.402;2024-02-28T04:43:44;3.00;99.90
13229;DHT22;6680;53.220;10.402;2024-02-28T04:46:10;3.00;99.90
13229;DHT22;6680;53.220;10.402;2024-02-28T04:48:37;2.90;99.90
13229;DHT22;6680;53.220;10.402;2024-02-28T04:51:04;2.90;99.90
13229;DHT22;6680;53.220;10.402;2024-02-28T04:53:31;2.90;99.90
13229;DHT22;6680;53.220;10.402;2024-02-28T04:55:58;2.90;99.90
13229;DHT22;6680;53.220;10.402;2024-02-28T04:58:26;3.20;99.90
13229;DHT22;6680;53.220;10.402;2024-02-28T05:00:53;2.90;99.90
13229;DHT22;6680;53.220;10.402;2024-02-28T05:03:20;2.90;99.90
13229;DHT22;6680;53.220;10.402;2024-02-28T05:05:47;2.90;99.90
13229;DHT22;6680;53.220;10.402;2024-02-28T05:08:14;2.90;99.90
13229;DHT22;6680;53.220;10.402;2024-02-28T05:10:41;2.90;99.90
13229;DHT22;6680;53.220;10.402;2024-02-28T05:13:08;2.90;99.90
13229;DHT22;6680;53.220;10.402;2024-02-28T05:15:36;2.80;99.90
13229;DHT22;6680;53.220;10.402;2024-02-28T05:18:04;2.90;99.90
13229;DHT22;6680;53.220;10.402;2024-02-28T05:20:31;2.90;99.90
13229;DHT22;6680;53.220;10.402;2024-02-28T05:22:57;2.90;99.90
13229;DHT22;6680;53.220;10.402;2024-02-28T05:25:24;2.90;99.90
13229;DHT22;6680;53.220;10.402;2024-02-28T05:27:51;2.90;99.90
13229;DHT22;6680;53.220;10.402;2024-02-28T05:30:18;3.00;99.90
13229;DHT22;6680;53.220;10.402;2024-02-28T05:32:46;2.90;99.90
13229;DHT22;6680;53.220;10.402;2024-02-28T05:35:13;2.90;99.90
13229;DHT22;6680;53.220;10.402;2024-02-28T05:37:40;2.90;99.90
13229;DHT22;6680;53.220;10.402;2024-02-28T05:40:07;3.00;99.90
13229;DHT22;6680;53.220;10.402;2024-02-28T05:42:34;2.90;99.90
13229;DHT22;6680;53.220;10.402;2024-02-28T05:45:01;2.90;99.90
13229;DHT22;6680;53.220;10.402;2024-02-28T05:47:28;3.00;99.90
13229;DHT22;6680;53.220;10.402;2024-02-28T05:49:56;2.90;99.90
13229;DHT22;6680;53.220;10.402;2024-02-28T05:52:24;2.90;99.90
13229;DHT22;6680;53.220;10.402;2024-02-28T05:54:51;2.90;99.90
13229;DHT22;6680;53.220;10.402;2024-02-28T05:57:18;2.80;99.90
13229;DHT22;6680;53.220;10.402;2024-02-28T05:59:45;2.90;99.90
13229;DHT22;6680;53.220;10.402;2024-02-28T06:02:12;3.00;99.90
13229;DHT22;6680;53.220;10.402;2024-02-28T06:04:39;2.90;99.90
13229;DHT22;6680;53.220;10.402;2024-02-28T06:07:06;2.90;99.90
13229;DHT22;6680;53.220;10.402;2024-02-28T06:09:33;2.80;99.90
13229;DHT22;6680;53.220;10.402;2024-02-28T06:12:00;2.80;99.90
13229;DHT22;6680;53.220;10.402;2024-02-28T06:14:28;2.80;99.90
13229;DHT22;6680;53.220;10.402;2024-02-28T06:16:55;2.80;99.90
13229;DHT22;6680;53.220;10.402;2024-02-28T06:19:21;2.80;99.90
13229;DHT22;6680;53.220;10.402;2024-02-28T06:21:48;2.80;99.90
13229;DHT22;6680;53.220;10.402;2024-02-28T06:24:17;2.80;99.90
13229;DHT22;6680;53.220;10.402;2024-02-28T06:26:43;2.80;99.90
13229;DHT22;6680;53.220;10.402;2024-02-28T06:29:10;2.70;99.90
13229;DHT22;6680;53.220;10.402;2024-02-28T06:31:37;2.60;99.90
13229;DHT22;6680;53.220;10.402;2024-02-28T06:34:04;2.60;99.90
13229;DHT22;6680;53.220;10.402;2024-02-28T06:36:31;2.50;99.90
13229;DHT22;6680;53.220;10.402;2024-02-28T06:38:58;2.50;99.90
13229;DHT22;6680;53.220;10.402;2024-02-28T06:41:26;2.50;99.90
13229;DHT22;6680;53.220;10.402;2024-02-28T06:43:53;2.50;99.90
13229;DHT22;6680;53.220;10.402;2024-02-28T06:46:20;2.60;99.90
13229;DHT22;6680;53.220;10.402;2024-02-28T06:48:46;2.50;99.90
13229;DHT22;6680;53.220;10.402;2024-02-28T06:51:16;2.40;99.90
13229;DHT22;6680;53.220;10.402;2024-02-28T06:53:42;2.40;99.90
13229;DHT22;6680;53.220;10.402;2024-02-28T06:56:09;2.50;99.90
13229;DHT22;6680;53.220;10.402;2024-02-28T06:58:38;2.50;99.90
13229;DHT22;6680;53.220;10.402;2024-02-28T07:01:05;2.40;99.90
13229;DHT22;6680;53.220;10.402;2024-02-28T07:03:32;2.50;99.90
13229;DHT22;6680;53.220;10.402;2024-02-28T07:05:59;2.50;99.90
13229;DHT22;6680;53.220;10.402;2024-02-28T07:08:25;2.80;99.90
13229;DHT22;6680;53.220;10.402;2024-02-28T07:10:52;2.70;99.90
13229;DHT22;6680;53.220;10.402;2024-02-28T07:13:20;3.10;99.90
13229;DHT22;6680;53.220;10.402;2024-02-28T07:15:48;3.20;99.90
13229;DHT22;6680;53.220;10.402;2024-02-28T07:18:15;3.20;99.90
13229;DHT22;6680;53.220;10.402;2024-02-28T07:20:42;3.30;99.90
13229;DHT22;6680;53.220;10.402;2024-02-28T07:23:09;3.40;99.90
13229;DHT22;6680;53.220;10.402;2024-02-28T07:25:36;3.40;99.90
13229;DHT22;6680;53.220;10.402;2024-02-28T07:28:03;3.50;99.90
13229;DHT22;6680;53.220;10.402;2024-02-28T07:30:31;3.50;99.90
13229;DHT22;6680;53.220;10.402;2024-02-28T07:32:59;3.60;99.90
13229;DHT22;6680;53.220;10.402;2024-02-28T07:35:26;3.90;99.90
13229;DHT22;6680;53.220;10.402;2024-02-28T07:37:52;3.70;99.90
13229;DHT22;6680;53.220;10.402;2024-02-28T07:40:19;3.80;99.90
13229;DHT22;6680;53.220;10.402;2024-02-28T07:42:46;3.90;99.90
13229;DHT22;6680;53.220;10.402;2024-02-28T07:45:13;4.00;99.90
13229;DHT22;6680;53.220;10.402;2024-02-28T07:50:09;4.10;99.90
13229;DHT22;6680;53.220;10.402;2024-02-28T07:52:35;4.20;99.90
13229;DHT22;6680;53.220;10.402;2024-02-28T07:55:03;4.20;99.90
13229;DHT22;6680;53.220;10.402;2024-02-28T07:57:31;4.30;99.90
13229;DHT22;6680;53.220;10.402;2024-02-28T07:59:58;4.30;99.90
13229;DHT22;6680;53.220;10.402;2024-02-28T08:02:25;4.30;99.90
13229;DHT22;6680;53.220;10.402;2024-02-28T08:04:52;4.30;99.90
13229;DHT22;6680;53.220;10.402;2024-02-28T08:07:20;4.20;99.90
13229;DHT22;6680;53.220;10.402;2024-02-28T08:09:47;4.20;99.90
13229;DHT22;6680;53.220;10.402;2024-02-28T08:12:14;4.10;99.90
13229;DHT22;6680;53.220;10.402;2024-02-28T08:14:41;4.10;99.90
13229;DHT22;6680;53.220;10.402;2024-02-28T08:17:08;4.10;99.90
13229;DHT22;6680;53.220;10.402;2024-02-28T08:19:34;4.20;99.90
13229;DHT22;6680;53.220;10.402;2024-02-28T08:22:01;4.20;99.90
13229;DHT22;6680;53.220;10.402;2024-02-28T08:24:29;4.30;99.90
13229;DHT22;6680;53.220;10.402;2024-02-28T08:26:56;4.40;99.90
13229;DHT22;6680;53.220;10.402;2024-02-28T08:29:23;4.50;99.90
13229;DHT22;6680;53.220;10.402;2024-02-28T08:31:50;4.70;99.90
13229;DHT22;6680;53.220;10.402;2024-02-28T08:34:16;4.80;99.90
13229;DHT22;6680;53.220;10.402;2024-02-28T08:39:10;4.90;99.90
13229;DHT22;6680;53.220;10.402;2024-02-28T08:41:38;4.90;99.90
13229;DHT22;6680;53.220;10.402;2024-02-28T08:44:05;4.90;99.90
13229;DHT22;6680;53.220;10.402;2024-02-28T08:46:32;4.80;99.90
13229;DHT22;6680;53.220;10.402;2024-02-28T08:48:59;4.70;99.90
13229;DHT22;6680;53.220;10.402;2024-02-28T08:51:26;4.70;99.90
13229;DHT22;6680;53.220;10.402;2024-02-28T08:53:53;4.70;99.90
13229;DHT22;6680;53.220;10.402;2024-02-28T08:56:21;4.90;99.90
13229;DHT22;6680;53.220;10.402;2024-02-28T08:58:49;4.70;99.90
13229;DHT22;6680;53.220;10.402;2024-02-28T09:01:16;4.70;99.90
13229;DHT22;6680;53.220;10.402;2024-02-28T09:03:43;4.70;99.90
13229;DHT22;6680;53.220;10.402;2024-02-28T09:06:10;4.80;99.90
13229;DHT22;6680;53.220;10.402;2024-02-28T09:08:36;4.90;99.90
13229;DHT22;6680;53.220;10.402;2024-02-28T09:11:03;4.90;99.90
13229;DHT22;6680;53.220;10.402;2024-02-28T09:13:31;4.70;99.90
13229;DHT22;6680;53.220;10.402;2024-02-28T09:15:59;5.00;99.90
13229;DHT22;6680;53.220;10.402;2024-02-28T09:18:26;5.00;99.90
13229;DHT22;6680;53.220;10.402;2024-02-28T09:20:53;5.00;99.90
13229;DHT22;6680;53.220;10.402;2024-02-28T09:23:20;5.00;99.90
13229;DHT22;6680;53.220;10.402;2024-02-28T09:25:47;5.10;99.90
13229;DHT22;6680;53.220;10.402;2024-02-28T09:28:14;5.00;99.90
13229;DHT22;6680;53.220;10.402;2024-02-28T09:30:41;5.00;99.90
13229;DHT22;6680;53.220;10.402;2024-02-28T09:33:10;5.00;99.90
13229;DHT22;6680;53.220;10.402;2024-02-28T09:35:37;5.10;99.90
13229;DHT22;6680;53.220;10.402;2024-02-28T09:38:04;5.20;99.90
13229;DHT22;6680;53.220;10.402;2024-02-28T09:40:31;5.20;99.90
13229;DHT22;6680;53.220;10.402;2024-02-28T09:43:01;5.50;99.90
13229;DHT22;6680;53.220;10.402;2024-02-28T09:45:29;5.20;99.90
13229;DHT22;6680;53.220;10.402;2024-02-28T09:47:58;5.30;99.90
13229;DHT22;6680;53.220;10.402;2024-02-28T09:50:27;5.20;99.90
13229;DHT22;6680;53.220;10.402;2024-02-28T09:52:54;5.30;99.90
13229;DHT22;6680;53.220;10.402;2024-02-28T09:55:21;5.40;99.90
13229;DHT22;6680;53.220;10.402;2024-02-28T09:57:48;5.50;99.90
13229;DHT22;6680;53.220;10.402;2024-02-28T10:00:19;5.60;99.90
13229;DHT22;6680;53.220;10.402;2024-02-28T10:02:47;6.10;99.90
13229;DHT22;6680;53.220;10.402;2024-02-28T10:05:16;5.90;99.90
13229;DHT22;6680;53.220;10.402;2024-02-28T10:07:46;6.30;99.90
13229;DHT22;6680;53.220;10.402;2024-02-28T10:10:13;6.50;99.90
13229;DHT22;6680;53.220;10.402;2024-02-28T10:12:42;7.00;99.90
13229;DHT22;6680;53.220;10.402;2024-02-28T10:15:10;7.10;99.90
13229;DHT22;6680;53.220;10.402;2024-02-28T10:17:37;7.20;99.90
13229;DHT22;6680;53.220;10.402;2024-02-28T10:20:04;7.00;99.90
13229;DHT22;6680;53.220;10.402;2024-02-28T10:22:34;7.40;99.90
13229;DHT22;6680;53.220;10.402;2024-02-28T10:25:03;7.50;99.90
13229;DHT22;6680;53.220;10.402;2024-02-28T10:27:32;7.50;99.90
13229;DHT22;6680;53.220;10.402;2024-02-28T10:29:59;7.50;99.90
13229;DHT22;6680;53.220;10.402;2024-02-28T10:32:27;7.60;99.90
13229;DHT22;6680;53.220;10.402;2024-02-28T10:34:54;7.50;99.90
13229;DHT22;6680;53.220;10.402;2024-02-28T10:37:21;7.60;99.90
13229;DHT22;6680;53.220;10.402;2024-02-28T10:39:49;7.50;99.90
13229;DHT22;6680;53.220;10.402;2024-02-28T10:42:19;7.70;99.90
13229;DHT22;6680;53.220;10.402;2024-02-28T10:44:48;8.00;99.90
13229;DHT22;6680;53.220;10.402;2024-02-28T10:47:17;8.10;99.90
13229;DHT22;6680;53.220;10.402;2024-02-28T10:49:44;8.10;99.90
13229;DHT22;6680;53.220;10.402;2024-02-28T10:52:11;8.20;99.90
13229;DHT22;6680;53.220;10.402;2024-02-28T10:54:39;8.20;99.90
13229;DHT22;6680;53.220;10.402;2024-02-28T10:57:07;8.20;99.90
13229;DHT22;6680;53.220;10.402;2024-02-28T10:59:37;8.10;99.90
13229;DHT22;6680;53.220;10.402;2024-02-28T11:02:05;8.20;99.90
13229;DHT22;6680;53.220;10.402;2024-02-28T11:04:32;8.30;99.90
13229;DHT22;6680;53.220;10.402;2024-02-28T11:07:00;8.40;99.90
13229;DHT22;6680;53.220;10.402;2024-02-28T11:09:29;8.60;99.90
13229;DHT22;6680;53.220;10.402;2024-02-28T11:11:57;8.70;99.90
13229;DHT22;6680;53.220;10.402;2024-02-28T11:14:24;8.80;99.90
13229;DHT22;6680;53.220;10.402;2024-02-28T11:17:02;8.70;99.90
13229;DHT22;6680;53.220;10.402;2024-02-28T11:19:30;8.50;99.90
13229;DHT22;6680;53.220;10.402;2024-02-28T11:21:59;8.40;99.90
13229;DHT22;6680;53.220;10.402;2024-02-28T11:24:29;8.20;99.90
13229;DHT22;6680;53.220;10.402;2024-02-28T11:26:56;8.00;99.90
13229;DHT22;6680;53.220;10.402;2024-02-28T11:29:24;7.90;99.90
13229;DHT22;6680;53.220;10.402;2024-02-28T11:31:52;7.80;99.90
13229;DHT22;6680;53.220;10.402;2024-02-28T11:34:21;7.80;99.90
13229;DHT22;6680;53.220;10.402;2024-02-28T11:36:48;7.80;99.90
13229;DHT22;6680;53.220;10.402;2024-02-28T11:39:15;7.90;99.90
13229;DHT22;6680;53.220;10.402;2024-02-28T11:41:42;7.80;99.90
13229;DHT22;6680;53.220;10.402;2024-02-28T11:44:12;7.90;99.90
13229;DHT22;6680;53.220;10.402;2024-02-28T11:46:43;7.90;99.90
13229;DHT22;6680;53.220;10.402;2024-02-28T11:49:11;8.10;99.90
13229;DHT22;6680;53.220;10.402;2024-02-28T11:51:40;8.20;99.90
13229;DHT22;6680;53.220;10.402;2024-02-28T11:54:07;8.20;99.90
13229;DHT22;6680;53.220;10.402;2024-02-28T11:56:34;8.40;99.90
13229;DHT22;6680;53.220;10.402;2024-02-28T11:59:01;8.50;99.90
13229;DHT22;6680;53.220;10.402;2024-02-28T12:01:36;8.40;99.90
13229;DHT22;6680;53.220;10.402;2024-02-28T12:04:04;8.50;99.90
13229;DHT22;6680;53.220;10.402;2024-02-28T12:06:32;8.60;99.90
13229;DHT22;6680;53.220;10.402;2024-02-28T12:09:00;8.80;99.90
13229;DHT22;6680;53.220;10.402;2024-02-28T12:11:27;8.90;99.90
13229;DHT22;6680;53.220;10.402;2024-02-28T12:13:55;9.00;99.90
13229;DHT22;6680;53.220;10.402;2024-02-28T12:16:23;9.10;99.90
13229;DHT22;6680;53.220;10.402;2024-02-28T12:18:51;9.20;99.90
13229;DHT22;6680;53.220;10.402;2024-02-28T12:21:17;9.20;99.90
13229;DHT22;6680;53.220;10.402;2024-02-28T12:23:45;9.20;99.90
13229;DHT22;6680;53.220;10.402;2024-02-28T12:26:16;9.10;99.90
13229;DHT22;6680;53.220;10.402;2024-02-28T12:28:43;8.90;99.90
13229;DHT22;6680;53.220;10.402;2024-02-28T12:31:09;8.70;99.90
13229;DHT22;6680;53.220;10.402;2024-02-28T12:33:37;8.60;99.90
13229;DHT22;6680;53.220;10.402;2024-02-28T12:36:04;8.60;99.90
13229;DHT22;6680;53.220;10.402;2024-02-28T12:38:32;8.60;99.90
13229;DHT22;6680;53.220;10.402;2024-02-28T12:40:59;8.50;99.90
13229;DHT22;6680;53.220;10.402;2024-02-28T12:43:29;8.70;99.90
13229;DHT22;6680;53.220;10.402;2024-02-28T12:45:57;8.60;99.90
13229;DHT22;6680;53.220;10.402;2024-02-28T12:48:24;8.70;99.90
13229;DHT22;6680;53.220;10.402;2024-02-28T12:50:50;8.70;99.90
13229;DHT22;6680;53.220;10.402;2024-02-28T12:53:17;8.90;99.90
13229;DHT22;6680;53.220;10.402;2024-02-28T12:55:44;9.00;99.90
13229;DHT22;6680;53.220;10.402;2024-02-28T12:58:11;9.10;99.90
13229;DHT22;6680;53.220;10.402;2024-02-28T13:00:39;9.20;99.90
13229;DHT22;6680;53.220;10.402;2024-02-28T13:03:06;9.20;99.90
13229;DHT22;6680;53.220;10.402;2024-02-28T13:05:33;9.20;99.90
13229;DHT22;6680;53.220;10.402;2024-02-28T13:07:59;9.30;99.90
13229;DHT22;6680;53.220;10.402;2024-02-28T13:10:26;9.30;99.90
13229;DHT22;6680;53.220;10.402;2024-02-28T13:12:53;9.30;99.90
13229;DHT22;6680;53.220;10.402;2024-02-28T13:15:20;9.10;99.90
13229;DHT22;6680;53.220;10.402;2024-02-28T13:17:48;9.40;99.90
13229;DHT22;6680;53.220;10.402;2024-02-28T13:20:16;9.50;99.90
13229;DHT22;6680;53.220;10.402;2024-02-28T13:22:43;9.60;99.90
13229;DHT22;6680;53.220;10.402;2024-02-28T13:25:11;9.70;99.90
13229;DHT22;6680;53.220;10.402;2024-02-28T13:27:39;9.70;99.90
13229;DHT22;6680;53.220;10.402;2024-02-28T13:30:07;9.70;99.90
13229;DHT22;6680;53.220;10.402;2024-02-28T13:32:34;9.80;99.90
13229;DHT22;6680;53.220;10.402;2024-02-28T13:35:02;9.90;99.90
13229;DHT22;6680;53.220;10.402;2024-02-28T13:37:29;10.00;99.90
13229;DHT22;6680;53.220;10.402;2024-02-28T13:39:57;9.90;99.90
13229;DHT22;6680;53.220;10.402;2024-02-28T13:42:24;9.90;99.90
13229;DHT22;6680;53.220;10.402;2024-02-28T13:44:50;9.70;99.90
13229;DHT22;6680;53.220;10.402;2024-02-28T13:47:17;9.80;99.90
13229;DHT22;6680;53.220;10.402;2024-02-28T13:49:44;9.90;99.90
13229;DHT22;6680;53.220;10.402;2024-02-28T13:52:12;9.90;99.90
13229;DHT22;6680;53.220;10.402;2024-02-28T13:54:39;9.80;99.90
13229;DHT22;6680;53.220;10.402;2024-02-28T13:57:06;9.70;99.90
13229;DHT22;6680;53.220;10.402;2024-02-28T13:59:33;9.70;99.90
13229;DHT22;6680;53.220;10.402;2024-02-28T14:02:00;9.60;99.90
13229;DHT22;6680;53.220;10.402;2024-02-28T14:04:26;9.40;99.90
13229;DHT22;6680;53.220;10.402;2024-02-28T14:06:53;9.30;99.90
13229;DHT22;6680;53.220;10.402;2024-02-28T14:09:21;9.30;99.90
13229;DHT22;6680;53.220;10.402;2024-02-28T14:11:48;9.30;99.90
13229;DHT22;6680;53.220;10.402;2024-02-28T14:14:15;9.30;99.90
13229;DHT22;6680;53.220;10.402;2024-02-28T14:16:42;9.40;99.90
13229;DHT22;6680;53.220;10.402;2024-02-28T14:19:09;9.40;99.90
13229;DHT22;6680;53.220;10.402;2024-02-28T14:21:36;9.50;99.90
13229;DHT22;6680;53.220;10.402;2024-02-28T14:24:03;9.50;99.90
13229;DHT22;6680;53.220;10.402;2024-02-28T14:26:31;9.60;99.90
13229;DHT22;6680;53.220;10.402;2024-02-28T14:28:58;9.50;99.90
13229;DHT22;6680;53.220;10.402;2024-02-28T14:31:24;9.60;99.90
13229;DHT22;6680;53.220;10.402;2024-02-28T14:33:52;9.60;99.90
13229;DHT22;6680;53.220;10.402;2024-02-28T14:36:20;9.80;99.90
13229;DHT22;6680;53.220;10.402;2024-02-28T14:38:47;9.80;99.90
13229;DHT22;6680;53.220;10.402;2024-02-28T14:41:14;9.70;99.90
13229;DHT22;6680;53.220;10.402;2024-02-28T14:43:42;9.70;99.90
13229;DHT22;6680;53.220;10.402;2024-02-28T14:46:09;9.70;99.90
13229;DHT22;6680;53.220;10.402;2024-02-28T14:48:37;9.30;99.90
13229;DHT22;6680;53.220;10.402;2024-02-28T14:51:04;9.40;99.90
13229;DHT22;6680;53.220;10.402;2024-02-28T14:53:32;9.30;99.90
13229;DHT22;6680;53.220;10.402;2024-02-28T14:55:58;9.10;99.90
13229;DHT22;6680;53.220;10.402;2024-02-28T14:58:25;9.00;99.90
13229;DHT22;6680;53.220;10.402;2024-02-28T15:00:54;9.00;99.90
13229;DHT22;6680;53.220;10.402;2024-02-28T15:03:23;8.90;99.90
13229;DHT22;6680;53.220;10.402;2024-02-28T15:05:51;8.80;99.90
13229;DHT22;6680;53.220;10.402;2024-02-28T15:08:17;8.90;99.90
13229;DHT22;6680;53.220;10.402;2024-02-28T15:10:44;8.80;99.90
13229;DHT22;6680;53.220;10.402;2024-02-28T15:13:11;8.70;99.90
13229;DHT22;6680;53.220;10.402;2024-02-28T15:15:38;8.70;99.90
13229;DHT22;6680;53.220;10.402;2024-02-28T15:18:06;8.80;99.90
13229;DHT22;6680;53.220;10.402;2024-02-28T15:20:34;8.70;99.90
13229;DHT22;6680;53.220;10.402;2024-02-28T15:23:01;8.80;99.90
13229;DHT22;6680;53.220;10.402;2024-02-28T15:25:28;8.70;99.90
13229;DHT22;6680;53.220;10.402;2024-02-28T15:27:55;8.90;99.90
13229;DHT22;6680;53.220;10.402;2024-02-28T15:30:22;8.80;99.90
13229;DHT22;6680;53.220;10.402;2024-02-28T15:32:49;8.80;99.90
13229;DHT22;6680;53.220;10.402;2024-02-28T15:35:17;8.80;99.90
13229;DHT22;6680;53.220;10.402;2024-02-28T15:37:46;8.70;99.90
13229;DHT22;6680;53.220;10.402;2024-02-28T15:40:13;8.70;99.90
13229;DHT22;6680;53.220;10.402;2024-02-28T15:42:41;8.70;99.90
13229;DHT22;6680;53.220;10.402;2024-02-28T15:45:08;8.10;99.90
13229;DHT22;6680;53.220;10.402;2024-02-28T15:47:35;8.50;99.90
13229;DHT22;6680;53.220;10.402;2024-02-28T15:50:03;8.40;99.90
13229;DHT22;6680;53.220;10.402;2024-02-28T15:52:31;8.40;99.90
13229;DHT22;6680;53.220;10.402;2024-02-28T15:54:58;8.30;99.90
13229;DHT22;6680;53.220;10.402;2024-02-28T15:57:25;8.30;99.90
13229;DHT22;6680;53.220;10.402;2024-02-28T15:59:52;8.20;99.90
13229;DHT22;6680;53.220;10.402;2024-02-28T16:02:20;8.10;99.90